Time;durP1;ratioP1;P1;durP2;ratioP2;P2;SDS_P1;SDS_P2;PMS_P1;PMS_P2;Temp;Humidity;BMP_temperature;BMP_pressure;BME280_temperature;BME280_humidity;BME280_pressure;Samples;Min_cycle;Max_cycle;Signal;HPM_P1;HPM_P2
2022/08/11 00:00:56;;;;;;;10.40;7.13;;;17.00;99.90;;;;;;5033255;28;20064;-85
2022/08/11 00:03:44;;;;;;;10.27;6.00;;;17.00;99.90;;;;;;5031126;28;20144;-84
2022/08/11 00:06:36;;;;;;;12.30;7.45;;;16.90;99.90;;;;;;5031282;28;20095;-85
2022/08/11 00:09:32;;;;;;;7.65;5.75;;;16.90;99.90;;;;;;5014485;28;20041;-90
2022/08/11 00:12:17;;;;;;;8.13;6.97;;;16.90;99.90;;;;;;5023250;28;20048;-84
2022/08/11 00:15:01;;;;;;;7.80;6.57;;;16.80;99.90;;;;;;5032603;28;20087;-84
2022/08/11 00:17:46;;;;;;;9.38;7.30;;;16.80;99.90;;;;;;5031673;28;20094;-84
2022/08/11 00:20:32;;;;;;;9.60;7.05;;;16.80;99.90;;;;;;5019296;28;20547;-84
2022/08/11 00:23:19;;;;;;;8.95;8.05;;;16.70;99.90;;;;;;5032536;28;20111;-84
2022/08/11 00:26:06;;;;;;;12.85;7.90;;;16.70;99.90;;;;;;5030910;28;20452;-84
2022/08/11 00:28:51;;;;;;;12.48;7.55;;;16.60;99.90;;;;;;5018726;28;20115;-84
2022/08/11 00:31:36;;;;;;;11.30;8.75;;;16.60;99.90;;;;;;5031723;28;20044;-84
2022/08/11 00:34:29;;;;;;;10.75;9.10;;;16.60;99.90;;;;;;5031708;28;20060;-84
2022/08/11 00:37:20;;;;;;;10.80;8.70;;;16.50;99.90;;;;;;5030161;28;20044;-85
2022/08/11 00:40:14;;;;;;;15.73;9.82;;;16.50;99.90;;;;;;5032367;28;20117;-84
2022/08/11 00:43:10;;;;;;;14.43;10.00;;;16.50;99.90;;;;;;5021679;28;20400;-84
2022/08/11 00:46:06;;;;;;;13.77;9.60;;;16.50;99.90;;;;;;5031260;28;20067;-84
2022/08/11 00:48:59;;;;;;;11.68;9.50;;;16.60;99.90;;;;;;5030622;28;20036;-85
2022/08/11 00:52:11;;;;;;;14.10;9.75;;;16.40;99.90;;;;;;5031572;28;20068;-84
2022/08/11 00:55:50;;;;;;;11.95;9.68;;;16.40;99.90;;;;;;5029285;28;20055;-85
2022/08/11 00:58:56;;;;;;;10.80;8.50;;;16.40;99.90;;;;;;5015824;28;20584;-84
2022/08/11 01:01:48;;;;;;;15.95;9.57;;;16.40;99.90;;;;;;5030649;28;20036;-84
2022/08/11 01:04:57;;;;;;;13.60;10.48;;;16.40;99.90;;;;;;5031501;28;20389;-85
2022/08/11 01:08:27;;;;;;;14.98;10.18;;;16.30;99.90;;;;;;5029779;28;20119;-84
2022/08/11 01:11:45;;;;;;;11.20;9.80;;;16.30;99.90;;;;;;5026620;28;20184;-84
2022/08/11 01:14:36;;;;;;;15.80;10.90;;;16.30;99.90;;;;;;5027090;28;20095;-88
2022/08/11 01:17:41;;;;;;;14.57;10.25;;;16.20;99.90;;;;;;5032107;28;20084;-84
2022/08/11 01:20:47;;;;;;;13.95;11.80;;;16.30;99.90;;;;;;5022397;28;20048;-85
2022/08/11 01:23:50;;;;;;;12.52;10.25;;;16.20;99.90;;;;;;5030887;28;20071;-89
2022/08/11 01:27:09;;;;;;;18.38;11.10;;;16.20;99.90;;;;;;5029101;28;20408;-85
2022/08/11 01:30:15;;;;;;;14.20;10.82;;;16.20;99.90;;;;;;5030787;28;20048;-85
2022/08/11 01:33:37;;;;;;;18.33;11.55;;;16.20;99.90;;;;;;5031812;28;20052;-84
2022/08/11 01:36:42;;;;;;;15.00;11.57;;;16.10;99.90;;;;;;5030706;28;20103;-84
2022/08/11 01:39:45;;;;;;;14.30;11.23;;;16.10;99.90;;;;;;5017865;28;20072;-84
2022/08/11 01:46:31;;;;;;;18.35;12.75;;;16.10;99.90;;;;;;5017578;28;20098;-84
2022/08/11 01:50:02;;;;;;;16.17;11.55;;;16.10;99.90;;;;;;5030468;28;20084;-86
2022/08/11 01:53:00;;;;;;;16.17;12.50;;;16.10;99.90;;;;;;5030715;28;20064;-84
2022/08/11 01:56:09;;;;;;;19.75;13.10;;;16.10;99.90;;;;;;5030256;28;20043;-84
2022/08/11 01:59:04;;;;;;;16.40;13.30;;;16.10;99.90;;;;;;5030506;28;20044;-84
2022/08/11 02:02:07;;;;;;;19.50;14.68;;;16.10;99.90;;;;;;5029852;28;20040;-84
2022/08/11 02:05:16;;;;;;;20.67;13.40;;;16.00;99.90;;;;;;5030729;28;20040;-84
2022/08/11 02:08:00;;;;;;;21.83;14.45;;;16.00;99.90;;;;;;5030006;28;20044;-84
2022/08/11 02:14:48;;;;;;;28.02;17.27;;;15.90;99.90;;;;;;5033336;28;20119;-85
2022/08/11 02:17:57;;;;;;;23.88;15.90;;;15.60;99.90;;;;;;4948983;28;20069;-84
2022/08/11 02:24:13;;;;;;;20.77;16.98;;;15.90;99.90;;;;;;5033860;28;20072;-84
2022/08/11 02:27:17;;;;;;;26.75;19.25;;;15.80;99.90;;;;;;5034240;28;20067;-84
2022/08/11 02:30:07;;;;;;;27.20;19.13;;;15.70;99.90;;;;;;5033088;28;20156;-86
2022/08/11 02:33:22;;;;;;;26.02;19.25;;;15.80;99.90;;;;;;5034248;28;20044;-85
2022/08/11 02:36:18;;;;;;;25.05;17.65;;;15.70;99.90;;;;;;5033374;28;20095;-85
2022/08/11 02:39:10;;;;;;;25.25;19.85;;;15.90;99.90;;;;;;5033898;28;20387;-85
2022/08/11 02:42:22;;;;;;;23.02;20.33;;;15.80;99.90;;;;;;5033268;28;20041;-85
2022/08/11 02:45:31;;;;;;;22.67;19.35;;;15.70;99.90;;;;;;5034255;28;20064;-84
2022/08/11 02:52:32;;;;;;;28.35;22.02;;;15.60;99.90;;;;;;5033983;28;20092;-90
2022/08/11 02:55:46;;;;;;;28.13;21.85;;;15.70;99.90;;;;;;5012561;28;20098;-84
2022/08/11 02:59:48;;;;;;;31.15;22.48;;;15.50;99.90;;;;;;5033955;28;20155;-84
2022/08/11 03:01:58;;;;;;;31.40;23.02;;;15.60;99.90;;;;;;5033180;28;20091;-88
2022/08/11 03:05:07;;;;;;;31.97;22.03;;;15.50;99.90;;;;;;5034281;28;20087;-84
2022/08/11 03:08:17;;;;;;;33.03;23.52;;;15.50;99.90;;;;;;5033845;28;20263;-85
2022/08/11 03:18:16;;;;;;;33.20;23.23;;;15.30;99.90;;;;;;5033255;28;20550;-87
2022/08/11 03:21:44;;;;;;;34.92;24.30;;;15.50;99.90;;;;;;5033971;28;20440;-84
2022/08/11 03:25:08;;;;;;;22.63;19.48;;;15.50;99.90;;;;;;5022712;28;20164;-84
2022/08/11 03:28:27;;;;;;;39.30;24.77;;;15.40;99.90;;;;;;5033686;28;20113;-90
2022/08/11 03:31:23;;;;;;;34.63;24.83;;;15.30;99.90;;;;;;5023930;28;20651;-85
2022/08/11 03:34:29;;;;;;;35.20;25.00;;;15.40;99.90;;;;;;5020520;28;20044;-84
2022/08/11 03:44:01;;;;;;;34.58;22.98;;;15.30;99.90;;;;;;5032732;28;20044;-86
2022/08/11 03:47:10;;;;;;;36.28;24.85;;;15.30;99.90;;;;;;5033092;28;20410;-87
2022/08/11 03:50:25;;;;;;;33.90;24.15;;;15.20;99.90;;;;;;5024293;28;20079;-91
2022/08/11 03:53:16;;;;;;;32.45;24.55;;;15.20;99.90;;;;;;5032826;28;20063;-86
2022/08/11 03:56:17;;;;;;;26.92;20.95;;;15.30;99.90;;;;;;5031588;28;20041;-85
2022/08/11 03:59:42;;;;;;;33.83;23.38;;;15.10;99.90;;;;;;5031784;28;20444;-86
2022/08/11 04:03:06;;;;;;;24.60;20.00;;;15.10;99.90;;;;;;5029109;28;20040;-86
2022/08/11 04:06:03;;;;;;;30.17;22.60;;;15.10;99.90;;;;;;5023704;28;20512;-85
2022/08/11 04:09:22;;;;;;;30.42;21.42;;;15.10;99.90;;;;;;5032316;28;20114;-85
2022/08/11 04:12:32;;;;;;;37.10;25.42;;;15.10;99.90;;;;;;5026384;28;20088;-85
2022/08/11 04:18:43;;;;;;;25.88;19.88;;;15.00;99.90;;;;;;5031291;28;20392;-85
2022/08/11 04:21:34;;;;;;;46.20;26.67;;;15.10;99.90;;;;;;5032869;28;20064;-86
2022/08/11 04:24:46;;;;;;;43.30;26.20;;;15.00;99.90;;;;;;5031490;28;20090;-86
2022/08/11 04:27:45;;;;;;;40.10;25.42;;;15.00;99.90;;;;;;5031950;28;20117;-83
2022/08/11 04:30:41;;;;;;;28.63;20.98;;;15.00;99.90;;;;;;5031428;28;20139;-83
2022/08/11 04:33:36;;;;;;;37.03;24.50;;;15.00;99.90;;;;;;5029357;28;20095;-83
2022/08/11 04:40:01;;;;;;;40.45;24.42;;;15.10;99.90;;;;;;5019650;28;20045;-84
2022/08/11 04:43:19;;;;;;;35.65;23.65;;;14.90;99.90;;;;;;5027208;28;20105;-83
2022/08/11 04:46:41;;;;;;;40.10;24.00;;;15.10;99.90;;;;;;5021001;28;20044;-87
2022/08/11 05:03:08;;;;;;;30.55;21.85;;;;;;;;;;5019779;28;20083;-88
2022/08/11 05:06:14;;;;;;;28.58;20.02;;;15.30;99.90;;;;;;5015081;28;20036;-83
2022/08/11 05:09:22;;;;;;;28.85;20.98;;;15.40;99.90;;;;;;5028615;28;20231;-84
2022/08/11 05:12:45;;;;;;;29.40;20.67;;;15.50;99.90;;;;;;5029968;28;20527;-89
2022/08/11 05:34:49;;;;;;;22.05;17.10;;;16.60;99.90;;;;;;5011491;28;20399;-85
2022/08/11 05:56:20;;;;;;;17.98;12.35;;;16.70;99.90;;;;;;5013075;28;20052;-85
2022/08/11 05:59:12;;;;;;;15.30;12.02;;;16.80;99.90;;;;;;4994048;28;20041;-85
2022/08/11 06:02:02;;;;;;;20.45;12.45;;;16.90;99.90;;;;;;5000427;28;20033;-85
2022/08/11 06:04:57;;;;;;;15.27;11.38;;;17.20;99.90;;;;;;5009932;28;20041;-86
2022/08/11 06:07:42;;;;;;;17.77;11.60;;;17.10;99.90;;;;;;5007602;28;20091;-83
2022/08/11 06:10:40;;;;;;;15.38;11.18;;;17.20;99.90;;;;;;5003119;28;20033;-82
2022/08/11 06:13:25;;;;;;;13.15;11.52;;;17.30;99.90;;;;;;5014162;28;20429;-84
2022/08/11 06:16:13;;;;;;;14.05;10.38;;;17.40;99.90;;;;;;5021774;28;20045;-84
2022/08/11 06:18:58;;;;;;;13.73;10.68;;;17.50;99.90;;;;;;4995885;28;20045;-85
2022/08/11 06:21:46;;;;;;;13.32;9.20;;;17.60;99.90;;;;;;5012710;28;20040;-85
2022/08/11 06:24:31;;;;;;;11.13;9.20;;;17.70;99.90;;;;;;5014384;28;20148;-84
2022/08/11 06:27:25;;;;;;;13.15;8.77;;;17.90;99.90;;;;;;5014631;28;20125;-85
2022/08/11 06:30:17;;;;;;;;;;;18.00;99.90;;;;;;5026711;28;20055;-85
2022/08/11 06:33:03;;;;;;;11.85;8.52;;;18.10;99.90;;;;;;5035074;28;19932;-84
2022/08/11 06:35:58;;;;;;;10.32;8.23;;;18.20;99.90;;;;;;5015842;28;20145;-86
2022/08/11 06:38:59;;;;;;;11.27;8.20;;;18.40;99.90;;;;;;5027982;28;20385;-83
2022/08/11 06:42:03;;;;;;;9.48;8.00;;;18.50;99.90;;;;;;5033047;28;20068;-84
2022/08/11 06:45:00;;;;;;;11.30;8.43;;;18.60;99.90;;;;;;5024273;28;20045;-80
2022/08/11 06:47:48;;;;;;;10.07;7.32;;;18.70;99.90;;;;;;5032838;28;20542;-83
2022/08/11 06:53:55;;;;;;;9.07;6.70;;;19.00;99.90;;;;;;5016538;28;20092;-84
2022/08/11 07:03:07;;;;;;;6.50;5.80;;;19.50;99.90;;;;;;5029214;28;20045;-87
2022/08/11 07:06:00;;;;;;;8.35;5.05;;;19.60;99.90;;;;;;5033510;28;20064;-85
2022/08/11 07:15:58;;;;;;;6.35;4.38;;;;;;;;;;5028535;28;20060;-85
2022/08/11 07:31:23;;;;;;;10.23;4.13;;;23.80;99.90;;;;;;5023831;28;20084;-87
2022/08/11 07:34:26;;;;;;;5.57;3.72;;;24.90;99.90;;;;;;5032387;28;20043;-86
2022/08/11 07:37:17;;;;;;;7.15;3.42;;;25.30;99.90;;;;;;5033476;28;20037;-88
2022/08/11 07:40:03;;;;;;;7.55;3.88;;;25.10;99.90;;;;;;5035250;28;20041;-90
2022/08/11 07:42:48;;;;;;;7.63;3.15;;;24.80;99.90;;;;;;5031671;28;20052;-88
2022/08/11 07:54:47;;;;;;;4.97;2.30;;;25.10;99.90;;;;;;5032423;28;20095;-87
2022/08/11 08:19:02;;;;;;;6.88;2.08;;;27.50;99.60;;;;;;5021267;28;20126;-86
2022/08/11 08:21:50;;;;;;;4.65;1.83;;;27.40;98.10;;;;;;5027023;28;20060;-87
2022/08/11 08:24:40;;;;;;;5.53;1.60;;;27.20;97.80;;;;;;5031594;28;20061;-89
2022/08/11 08:27:25;;;;;;;3.17;1.80;;;27.10;97.30;;;;;;5023294;28;20049;-86
2022/08/11 08:33:21;;;;;;;5.20;1.73;;;27.00;95.00;;;;;;5030602;28;20047;-85
2022/08/11 08:36:12;;;;;;;6.05;1.98;;;27.10;95.90;;;;;;5031297;28;20044;-85
2022/08/11 08:38:57;;;;;;;6.50;2.20;;;27.20;96.30;;;;;;5027797;28;20088;-86
2022/08/11 08:41:43;;;;;;;4.10;1.65;;;27.20;95.60;;;;;;5031101;28;20535;-85
2022/08/11 08:44:30;;;;;;;7.80;2.00;;;27.20;94.30;;;;;;5031229;28;20103;-85
2022/08/11 08:47:20;;;;;;;4.65;1.70;;;27.20;95.50;;;;;;5031133;28;20103;-85
2022/08/11 08:50:09;;;;;;;4.30;1.50;;;27.40;96.40;;;;;;5032006;28;20044;-85
2022/08/11 08:53:03;;;;;;;7.18;1.60;;;27.50;95.10;;;;;;5021474;28;20045;-84
2022/08/11 08:55:49;;;;;;;4.38;1.70;;;;;;;;;;5031310;28;20060;-88
2022/08/11 08:58:36;;;;;;;3.60;1.65;;;27.80;92.50;;;;;;5032667;28;20087;-86
2022/08/11 09:01:24;;;;;;;3.88;1.83;;;27.90;92.60;;;;;;5031500;28;20095;-86
2022/08/11 09:04:09;;;;;;;4.90;1.80;;;;;;;;;;5032444;28;20047;-86
2022/08/11 09:06:57;;;;;;;3.53;1.38;;;28.10;92.20;;;;;;5028460;28;20408;-87
2022/08/11 09:09:45;;;;;;;2.58;1.60;;;28.40;91.30;;;;;;5032688;28;20033;-89
2022/08/11 09:12:31;;;;;;;3.90;1.67;;;28.40;91.60;;;;;;5023131;28;20159;-85
2022/08/11 09:15:17;;;;;;;5.30;1.88;;;28.80;86.70;;;;;;5029395;28;20036;-85
2022/08/11 09:18:04;;;;;;;5.70;1.80;;;28.80;87.10;;;;;;5005473;28;20044;-85
2022/08/11 09:20:51;;;;;;;5.65;1.80;;;28.90;85.40;;;;;;5013315;28;20045;-86
2022/08/11 09:26:58;;;;;;;;;;;29.30;83.10;;;;;;5020982;28;20063;-84
2022/08/11 09:29:44;;;;;;;4.07;1.80;;;29.40;80.30;;;;;;5028293;28;19927;-85
2022/08/11 09:32:30;;;;;;;3.05;1.63;;;29.40;80.40;;;;;;5023405;28;21678;-85
2022/08/11 09:35:16;;;;;;;7.82;2.00;;;29.40;78.30;;;;;;5024615;28;20119;-87
2022/08/11 09:41:08;;;;;;;4.90;1.70;;;29.60;79.40;;;;;;5027066;28;20052;-85
2022/08/11 09:46:59;;;;;;;4.55;1.60;;;29.90;74.90;;;;;;5028891;28;20049;-85
2022/08/11 09:49:45;;;;;;;6.47;2.08;;;30.00;72.50;;;;;;5026550;28;20440;-86
2022/08/11 09:52:34;;;;;;;2.55;1.33;;;30.10;71.40;;;;;;5033946;28;20040;-85
2022/08/11 09:55:19;;;;;;;3.45;1.42;;;30.20;69.70;;;;;;5035375;28;20045;-87
2022/08/11 09:58:15;;;;;;;4.38;1.42;;;30.20;68.10;;;;;;5034135;28;20049;-87
2022/08/11 10:01:01;;;;;;;4.30;1.58;;;30.20;68.50;;;;;;5034281;28;20083;-88
2022/08/11 10:03:46;;;;;;;3.75;1.38;;;30.40;67.10;;;;;;5024645;28;20104;-87
2022/08/11 10:09:47;;;;;;;4.07;1.60;;;30.50;65.60;;;;;;5034622;28;20052;-87
2022/08/11 10:12:36;;;;;;;5.60;1.75;;;30.60;64.70;;;;;;5025039;28;20040;-89
2022/08/11 10:15:32;;;;;;;4.03;1.60;;;30.70;63.30;;;;;;5028523;28;20033;-87
2022/08/11 10:18:41;;;;;;;3.60;1.70;;;30.70;61.40;;;;;;5028478;28;20043;-87
2022/08/11 10:21:36;;;;;;;4.18;1.55;;;30.80;61.90;;;;;;5025077;28;20547;-87
2022/08/11 10:27:25;;;;;;;;;;;30.90;58.90;;;;;;5024089;28;20064;-86
2022/08/11 10:36:20;;;;;;;5.35;1.75;;;31.10;57.70;;;;;;5029074;28;20072;-86
2022/08/11 10:39:05;;;;;;;5.55;1.50;;;31.20;58.70;;;;;;5028808;28;20040;-88
2022/08/11 10:44:54;;;;;;;;;;;31.50;55.70;;;;;;5031119;28;20052;-86
2022/08/11 10:47:38;;;;;;;7.72;1.77;;;31.60;56.10;;;;;;5042609;28;19966;-84
2022/08/11 10:59:41;;;;;;;3.35;1.15;;;31.80;53.60;;;;;;5034087;28;20047;-84
2022/08/11 11:02:26;;;;;;;6.45;1.63;;;31.90;54.40;;;;;;5025081;28;20508;-85
2022/08/11 11:05:28;;;;;;;2.63;1.30;;;32.10;51.90;;;;;;5032676;28;20076;-85
2022/08/11 11:11:21;;;;;;;3.80;1.55;;;32.20;51.80;;;;;;5019607;28;20053;-87
2022/08/11 11:20:02;;;;;;;2.28;1.10;;;32.30;51.20;;;;;;5032835;28;20111;-86
2022/08/11 11:22:52;;;;;;;3.53;1.20;;;32.30;51.60;;;;;;5032841;28;20055;-87
2022/08/11 11:26:05;;;;;;;3.42;1.40;;;32.30;49.20;;;;;;5034227;28;20088;-86
2022/08/11 11:28:49;;;;;;;3.70;1.20;;;32.40;45.50;;;;;;5033515;28;20048;-86
2022/08/11 11:31:52;;;;;;;2.72;1.20;;;32.30;48.10;;;;;;5032784;28;20048;-86
2022/08/11 11:35:00;;;;;;;;;;;32.30;49.90;;;;;;5030820;28;20167;-87
2022/08/11 11:37:47;;;;;;;3.53;1.50;;;32.30;48.10;;;;;;4994858;28;20391;-86
2022/08/11 11:40:32;;;;;;;5.15;1.20;;;32.20;48.20;;;;;;5033847;28;20448;-88
2022/08/11 11:43:17;;;;;;;2.90;1.30;;;32.40;48.30;;;;;;5032106;28;20064;-86
2022/08/11 11:46:03;;;;;;;3.35;1.15;;;32.50;46.90;;;;;;5017258;28;20057;-86
2022/08/11 11:48:48;;;;;;;2.65;1.10;;;32.60;46.20;;;;;;5032151;28;20146;-87
2022/08/11 11:51:32;;;;;;;3.63;1.15;;;32.60;44.90;;;;;;5032296;28;20159;-87
2022/08/11 11:54:24;;;;;;;13.18;2.50;;;32.60;44.60;;;;;;5018405;28;20036;-87
2022/08/11 12:03:19;;;;;;;3.40;1.25;;;32.80;47.00;;;;;;5032196;28;20048;-86
2022/08/11 12:06:04;;;;;;;2.05;1.27;;;;;;;;;;5031843;28;20500;-88
2022/08/11 12:08:51;;;;;;;3.67;1.50;;;33.00;43.90;;;;;;5027862;28;20036;-86
2022/08/11 12:14:40;;;;;;;7.40;1.23;;;33.00;45.90;;;;;;5031955;28;20050;-86
2022/08/11 12:17:25;;;;;;;3.58;1.02;;;;;;;;;;5031063;28;20071;-86
2022/08/11 12:20:09;;;;;;;3.75;1.20;;;33.30;44.80;;;;;;5032676;28;20068;-87
2022/08/11 12:29:05;;;;;;;2.47;1.20;;;33.10;43.90;;;;;;5016321;28;20053;-86
2022/08/11 12:31:50;;;;;;;2.78;1.10;;;;;;;;;;5029485;28;20064;-86
2022/08/11 12:34:34;;;;;;;3.90;1.00;;;;;;;;;;5034935;28;20105;-86
2022/08/11 12:37:28;;;;;;;2.78;1.20;;;33.20;43.30;;;;;;5016096;28;20087;-87
2022/08/11 12:46:36;;;;;;;2.08;1.13;;;33.10;45.70;;;;;;5032177;28;20600;-87
2022/08/11 12:52:28;;;;;;;2.72;1.20;;;33.20;45.00;;;;;;5032034;28;20048;-86
2022/08/11 12:58:14;;;;;;;5.50;1.58;;;33.00;43.70;;;;;;5032131;28;20037;-87
2022/08/11 12:58:24;;;;;;;3.35;1.27;;;33.20;42.70;;;;;;5031742;28;20060;-87
2022/08/11 13:07:18;;;;;;;2.60;1.10;;;;;;;;;;5026952;28;20052;-91
2022/08/11 13:10:04;;;;;;;3.92;1.40;;;33.10;42.20;;;;;;5031565;28;20036;-86
2022/08/11 13:12:49;;;;;;;3.88;1.17;;;;;;;;;;5019571;28;20037;-86
2022/08/11 13:15:37;;;;;;;2.50;1.20;;;33.20;42.30;;;;;;5019373;28;20033;-83
2022/08/11 13:18:22;;;;;;;6.43;1.30;;;;;;;;;;5030371;28;20124;-85
2022/08/11 13:21:07;;;;;;;3.63;1.23;;;;;;;;;;5031912;28;20107;-85
2022/08/11 13:23:53;;;;;;;5.60;1.40;;;33.20;41.70;;;;;;5018250;28;20044;-84
2022/08/11 13:26:38;;;;;;;3.10;1.23;;;;;;;;;;5011250;28;20119;-84
2022/08/11 13:29:26;;;;;;;1.95;1.08;;;33.10;40.90;;;;;;5031462;28;20171;-88
2022/08/11 13:32:11;;;;;;;3.58;1.30;;;;;;;;;;5031613;28;20176;-86
2022/08/11 13:34:55;;;;;;;3.58;1.17;;;33.10;40.60;;;;;;5031981;28;20075;-83
2022/08/11 13:37:43;;;;;;;2.03;1.10;;;33.20;41.70;;;;;;5023955;28;20049;-87
2022/08/11 13:40:29;;;;;;;2.22;1.02;;;33.00;42.30;;;;;;5015105;28;20044;-84
2022/08/11 13:43:16;;;;;;;3.10;1.40;;;33.30;41.60;;;;;;5030669;28;20091;-84
2022/08/11 13:46:19;;;;;;;3.58;1.25;;;;;;;;;;5031289;28;20044;-85
2022/08/11 13:49:06;;;;;;;2.67;1.17;;;33.20;42.70;;;;;;5016840;28;20553;-85
2022/08/11 13:51:51;;;;;;;4.57;1.20;;;33.20;43.90;;;;;;5031228;28;20087;-83
2022/08/11 13:54:37;;;;;;;1.75;1.10;;;32.90;42.00;;;;;;5016263;28;20064;-83
2022/08/11 13:57:23;;;;;;;3.95;1.40;;;33.00;42.40;;;;;;5027329;28;20496;-85
2022/08/11 14:00:08;;;;;;;2.75;1.23;;;33.00;43.40;;;;;;5016990;28;20052;-84
2022/08/11 14:02:53;;;;;;;4.60;1.33;;;;;;;;;;5031779;28;20078;-84
2022/08/11 14:05:46;;;;;;;2.03;0.93;;;33.10;42.00;;;;;;5030206;28;20035;-89
2022/08/11 14:08:35;;;;;;;5.05;1.40;;;33.20;42.00;;;;;;5031267;28;20072;-86
2022/08/11 14:14:31;;;;;;;2.92;1.10;;;33.10;41.70;;;;;;5021470;28;20048;-85
2022/08/11 14:17:18;;;;;;;2.20;1.20;;;33.30;44.30;;;;;;5033460;28;20513;-87
2022/08/11 14:20:07;;;;;;;3.72;0.90;;;33.00;42.00;;;;;;5035285;28;20492;-87
2022/08/11 14:22:55;;;;;;;4.10;1.20;;;;;;;;;;5028337;28;20125;-88
2022/08/11 14:26:22;;;;;;;2.67;1.00;;;33.20;42.30;;;;;;5026385;28;20108;-87
2022/08/11 14:28:53;;;;;;;6.22;1.38;;;33.00;42.50;;;;;;5027347;28;20052;-86
2022/08/11 14:31:43;;;;;;;2.03;1.10;;;33.10;42.90;;;;;;5029082;28;20068;-89
2022/08/11 14:34:29;;;;;;;2.30;1.23;;;32.80;42.30;;;;;;5031140;28;20037;-87
2022/08/11 14:37:18;;;;;;;4.15;1.30;;;32.70;42.20;;;;;;5027496;28;20094;-86
2022/08/11 14:47:03;;;;;;;4.45;1.20;;;32.90;42.90;;;;;;5022957;28;20103;-86
2022/08/11 14:49:37;;;;;;;3.17;1.20;;;32.60;43.10;;;;;;5000637;28;20053;-87
2022/08/11 14:52:22;;;;;;;6.72;1.20;;;;;;;;;;5017526;28;20128;-86
2022/08/11 14:58:18;;;;;;;3.40;1.35;;;32.30;43.50;;;;;;5034167;28;20047;-94
2022/08/11 15:03:05;;;;;;;3.00;1.48;;;;;;;;;;5033755;28;20044;-89
2022/08/11 15:04:07;;;;;;;3.75;1.10;;;;;;;;;;5034343;28;20040;-86
2022/08/11 15:06:52;;;;;;;5.80;1.10;;;;;;;;;;5033106;28;20051;-87
2022/08/11 15:09:42;;;;;;;2.97;1.20;;;32.00;44.90;;;;;;5033906;28;20092;-91
2022/08/11 15:12:27;;;;;;;3.00;1.25;;;;;;;;;;5029668;28;20073;-85
2022/08/11 15:18:16;;;;;;;3.75;1.17;;;31.70;45.10;;;;;;5033201;28;20052;-85
2022/08/11 15:24:37;;;;;;;4.85;1.63;;;31.80;46.50;;;;;;5031603;28;20079;-84
2022/08/11 15:45:46;;;;;;;4.53;1.50;;;;;;;;;;5021513;28;20045;-85
2022/08/11 15:46:10;;;;;;;2.53;1.20;;;30.80;47.80;;;;;;5025543;28;20044;-86
2022/08/11 15:49:02;;;;;;;3.83;1.58;;;30.40;47.80;;;;;;5029654;28;20040;-87
2022/08/11 15:51:57;;;;;;;2.95;1.30;;;30.90;48.60;;;;;;5031628;28;20405;-85
2022/08/11 15:54:45;;;;;;;5.45;1.30;;;30.60;48.50;;;;;;5024993;28;20040;-90
2022/08/11 16:04:12;;;;;;;4.22;1.30;;;30.20;49.70;;;;;;5020597;28;20087;-85
2022/08/11 16:07:05;;;;;;;2.70;1.50;;;30.40;50.50;;;;;;5032796;28;20103;-86
2022/08/11 16:09:56;;;;;;;5.53;1.40;;;29.90;49.90;;;;;;5032353;28;20041;-88
2022/08/11 16:19:01;;;;;;;5.38;1.45;;;29.70;51.10;;;;;;5029569;28;20081;-84
2022/08/11 16:21:49;;;;;;;5.28;1.55;;;29.60;51.50;;;;;;5030836;28;20091;-87
2022/08/11 16:24:44;;;;;;;6.63;1.60;;;29.70;52.30;;;;;;5031111;28;20036;-85
2022/08/11 16:27:32;;;;;;;2.30;1.33;;;29.40;52.20;;;;;;5032166;28;20095;-84
2022/08/11 16:30:17;;;;;;;3.30;1.27;;;;;;;;;;5031528;28;20048;-84
2022/08/11 16:33:04;;;;;;;5.40;1.50;;;29.00;52.70;;;;;;5030751;28;20099;-84
2022/08/11 16:38:58;;;;;;;3.28;1.50;;;29.10;53.80;;;;;;5031865;28;20087;-86
2022/08/11 16:47:51;;;;;;;2.97;1.50;;;;;;;;;;5022666;28;20067;-90
2022/08/11 16:50:38;;;;;;;4.35;1.45;;;28.70;54.80;;;;;;5030211;28;20163;-84
2022/08/11 16:53:22;;;;;;;3.20;1.33;;;;;;;;;;5032219;28;20111;-84
2022/08/11 16:56:08;;;;;;;4.00;1.80;;;28.40;56.00;;;;;;5031444;28;20040;-84
2022/08/11 16:59:14;;;;;;;5.05;1.88;;;28.50;56.70;;;;;;5031783;28;20096;-88
2022/08/11 17:13:07;;;;;;;5.40;1.33;;;28.40;57.10;;;;;;5022576;28;20052;-83
2022/08/11 17:14:51;;;;;;;6.85;1.88;;;27.60;58.80;;;;;;5022867;28;20624;-84
2022/08/11 17:17:37;;;;;;;8.02;1.90;;;27.60;59.30;;;;;;5019266;28;20451;-83
2022/08/11 17:20:22;;;;;;;10.18;1.80;;;27.50;59.40;;;;;;5022615;28;20061;-86
2022/08/11 17:26:11;;;;;;;4.20;1.58;;;;;;;;;;5002703;28;20075;-84
2022/08/11 17:28:58;;;;;;;2.95;1.40;;;27.20;60.50;;;;;;5018456;28;20449;-91
2022/08/11 17:38:16;;;;;;;5.10;1.60;;;27.00;62.80;;;;;;5030255;28;20049;-88
2022/08/11 17:50:14;;;;;;;4.00;1.98;;;;;;;;;;5021937;28;20036;-83
2022/08/11 17:59:51;;;;;;;5.57;1.60;;;26.50;67.30;;;;;;5034936;28;20085;-82
2022/08/11 18:05:42;;;;;;;7.05;1.90;;;26.10;68.90;;;;;;5025332;28;20044;-83
